createdAt,value
2023-05-15T00:01:41.769Z,9.91
2023-05-15T00:04:09.740Z,9.90
2023-05-15T00:06:37.738Z,9.90
2023-05-15T00:09:05.704Z,9.90
2023-05-15T00:11:35.030Z,9.92
2023-05-15T00:14:02.906Z,9.92
2023-05-15T00:16:30.962Z,9.92
2023-05-15T00:18:59.087Z,10.01
2023-05-15T00:21:27.160Z,10.01
2023-05-15T00:23:55.108Z,10.05
2023-05-15T00:26:25.156Z,10.01
2023-05-15T00:28:54.524Z,10.06
2023-05-15T00:31:22.497Z,10.02
2023-05-15T00:33:50.642Z,10.03
2023-05-15T00:36:18.694Z,10.03
2023-05-15T00:38:46.612Z,10.00
2023-05-15T00:41:15.438Z,10.04
2023-05-15T00:43:44.646Z,9.97
2023-05-15T00:46:14.339Z,9.87
2023-05-15T00:48:44.164Z,9.88
2023-05-15T00:51:13.154Z,9.89
2023-05-15T00:53:41.610Z,9.84
2023-05-15T00:56:10.507Z,9.81
2023-05-15T00:58:39.609Z,9.82
2023-05-15T01:01:08.776Z,9.81
2023-05-15T01:03:38.238Z,9.84
2023-05-15T01:06:06.918Z,9.85
2023-05-15T01:08:39.904Z,9.86
2023-05-15T01:11:09.904Z,9.81
2023-05-15T01:13:37.913Z,9.78
2023-05-15T01:16:07.359Z,9.78
2023-05-15T01:18:35.756Z,9.79
2023-05-15T01:21:31.967Z,9.80
2023-05-15T01:24:12.704Z,9.87
2023-05-15T01:27:05.511Z,9.78
2023-05-15T01:29:42.467Z,9.78
2023-05-15T01:32:13.827Z,9.74
2023-05-15T01:34:57.051Z,9.70
2023-05-15T01:37:30.112Z,9.64
2023-05-15T01:40:02.630Z,9.66
2023-05-15T01:42:35.667Z,9.64
2023-05-15T01:45:06.853Z,9.64
2023-05-15T01:47:40.763Z,9.63
2023-05-15T01:50:12.690Z,9.59
2023-05-15T01:52:44.548Z,9.63
2023-05-15T01:55:14.749Z,9.62
2023-05-15T01:57:46.349Z,9.57
2023-05-15T02:00:15.552Z,9.61
2023-05-15T02:02:44.287Z,9.60
2023-05-15T02:05:13.405Z,9.67
2023-05-15T02:07:43.701Z,9.68
2023-05-15T02:10:13.797Z,9.67
2023-05-15T02:12:44.558Z,9.66
2023-05-15T02:15:13.201Z,9.66
2023-05-15T02:17:41.404Z,9.71
2023-05-15T02:20:10.328Z,9.72
2023-05-15T02:22:38.335Z,9.74
2023-05-15T02:25:06.999Z,9.71
2023-05-15T02:27:40.201Z,9.71
2023-05-15T02:30:21.517Z,9.76
2023-05-15T02:32:57.422Z,9.77
2023-05-15T02:35:33.280Z,9.69
2023-05-15T02:38:05.016Z,9.75
2023-05-15T02:40:34.628Z,9.78
2023-05-15T02:43:03.391Z,9.80
2023-05-15T02:45:33.852Z,9.81
2023-05-15T02:48:03.469Z,9.86
2023-05-15T02:50:31.834Z,9.88
2023-05-15T02:53:07.443Z,9.87
2023-05-15T02:55:35.968Z,9.91
2023-05-15T02:58:05.011Z,9.88
2023-05-15T03:00:34.493Z,9.87
2023-05-15T03:03:02.482Z,9.87
2023-05-15T03:05:30.448Z,9.87
2023-05-15T03:07:59.180Z,9.87
2023-05-15T03:10:27.108Z,9.95
2023-05-15T03:12:58.406Z,9.94
2023-05-15T03:15:26.960Z,9.94
2023-05-15T03:17:56.517Z,9.97
2023-05-15T03:20:24.532Z,9.88
2023-05-15T03:22:52.413Z,9.86
2023-05-15T03:25:21.254Z,9.87
2023-05-15T03:27:49.203Z,9.91
2023-05-15T03:30:17.103Z,9.93
2023-05-15T03:32:45.022Z,9.77
2023-05-15T03:35:14.519Z,9.75
2023-05-15T03:37:42.466Z,9.80
2023-05-15T03:40:11.099Z,9.78
2023-05-15T03:42:39.063Z,9.75
2023-05-15T03:45:08.246Z,9.80
2023-05-15T03:47:36.249Z,9.82
2023-05-15T03:50:04.363Z,9.84
2023-05-15T03:52:33.762Z,9.87
2023-05-15T03:55:02.885Z,9.92
2023-05-15T03:57:30.909Z,9.98
2023-05-15T03:59:59.050Z,9.99
2023-05-15T04:02:27.023Z,10.04
2023-05-15T04:04:55.033Z,9.97
2023-05-15T04:07:23.053Z,10.03
2023-05-15T04:09:52.468Z,10.13
2023-05-15T04:12:20.492Z,10.19
2023-05-15T04:14:48.423Z,10.15
2023-05-15T04:17:16.286Z,10.17
2023-05-15T04:19:46.006Z,10.14
2023-05-15T04:22:14.114Z,10.25
2023-05-15T04:24:42.093Z,10.28
2023-05-15T04:27:11.611Z,10.28
2023-05-15T04:29:40.738Z,10.33
2023-05-15T04:32:12.947Z,10.26
2023-05-15T04:34:41.442Z,10.26
2023-05-15T04:37:12.257Z,10.28
2023-05-15T04:39:40.237Z,10.31
2023-05-15T04:42:08.379Z,10.34
2023-05-15T04:44:37.800Z,10.34
2023-05-15T04:47:07.870Z,10.41
2023-05-15T04:49:35.958Z,10.45
2023-05-15T04:52:04.185Z,10.45
2023-05-15T04:54:32.569Z,10.46
2023-05-15T04:57:00.680Z,10.61
2023-05-15T04:59:28.765Z,10.59
2023-05-15T05:01:58.407Z,10.58
2023-05-15T05:04:26.452Z,10.62
2023-05-15T05:06:54.433Z,10.65
2023-05-15T05:09:22.330Z,10.69
2023-05-15T05:11:50.301Z,10.74
2023-05-15T05:14:18.418Z,10.73
2023-05-15T05:16:46.741Z,10.74
2023-05-15T05:19:16.137Z,10.81
2023-05-15T05:21:44.468Z,10.89
2023-05-15T05:24:12.817Z,10.93
2023-05-15T05:26:40.933Z,11.00
2023-05-15T05:29:08.932Z,11.03
2023-05-15T05:31:36.884Z,11.07
2023-05-15T05:34:04.842Z,11.15
2023-05-15T05:36:34.152Z,11.24
2023-05-15T05:39:02.256Z,11.31
2023-05-15T05:41:30.849Z,11.33
2023-05-15T05:43:58.899Z,11.40
2023-05-15T05:46:27.744Z,11.44
2023-05-15T05:48:56.126Z,11.50
2023-05-15T05:51:24.856Z,11.56
2023-05-15T05:53:54.732Z,11.57
2023-05-15T05:56:23.977Z,11.75
2023-05-15T05:58:52.311Z,11.65
2023-05-15T06:01:21.105Z,12.26
2023-05-15T06:03:49.562Z,12.26
2023-05-15T06:06:18.132Z,12.22
2023-05-15T06:08:47.025Z,12.21
2023-05-15T06:11:16.742Z,12.02
2023-05-15T06:13:45.015Z,12.06
2023-05-15T06:16:13.766Z,12.10
2023-05-15T06:18:42.116Z,12.15
2023-05-15T06:21:10.691Z,12.19
2023-05-15T06:23:39.065Z,12.34
2023-05-15T06:26:10.317Z,12.31
2023-05-15T06:28:40.073Z,12.26
2023-05-15T06:31:08.258Z,12.37
2023-05-15T06:33:37.161Z,12.43
2023-05-15T06:36:05.900Z,12.70
2023-05-15T06:38:34.534Z,12.71
2023-05-15T06:41:03.079Z,12.79
2023-05-15T06:43:31.710Z,12.97
2023-05-15T06:46:02.077Z,13.10
2023-05-15T06:48:31.710Z,13.23
2023-05-15T06:51:00.561Z,13.28
2023-05-15T06:53:31.039Z,13.24
2023-05-15T06:55:59.516Z,13.33
2023-05-15T06:58:28.321Z,13.38
2023-05-15T07:01:01.552Z,13.62
2023-05-15T07:03:30.451Z,13.64
2023-05-15T07:05:58.521Z,13.65
2023-05-15T07:08:27.001Z,13.70
2023-05-15T07:10:55.001Z,13.66
2023-05-15T07:13:23.012Z,13.48
2023-05-15T07:15:51.056Z,13.71
2023-05-15T07:18:20.651Z,13.70
2023-05-15T07:20:48.750Z,13.87
2023-05-15T07:23:17.357Z,13.97
2023-05-15T07:25:46.084Z,14.03
2023-05-15T07:28:14.276Z,14.13
2023-05-15T07:30:42.428Z,14.10
2023-05-15T07:33:10.472Z,13.83
2023-05-15T07:35:39.961Z,14.05
2023-05-15T07:38:08.049Z,14.08
2023-05-15T07:40:36.571Z,14.05
2023-05-15T07:43:04.644Z,13.90
2023-05-15T07:45:32.590Z,13.58
2023-05-15T07:48:00.955Z,13.89
2023-05-15T07:50:28.917Z,13.86
2023-05-15T07:52:58.392Z,13.69
2023-05-15T07:55:26.507Z,13.62
2023-05-15T07:57:54.576Z,13.65
2023-05-15T08:00:23.511Z,13.66
2023-05-15T08:02:51.844Z,13.61
2023-05-15T08:05:19.949Z,13.37
2023-05-15T08:07:47.920Z,13.44
2023-05-15T08:10:17.272Z,13.49
2023-05-15T08:12:47.171Z,13.39
2023-05-15T08:15:15.500Z,13.40
2023-05-15T08:17:43.734Z,13.35
2023-05-15T08:20:12.839Z,13.37
2023-05-15T08:22:40.950Z,13.28
2023-05-15T08:25:10.063Z,13.32
2023-05-15T08:27:39.798Z,13.51
2023-05-15T08:30:09.236Z,13.68
2023-05-15T08:32:37.199Z,13.96
2023-05-15T08:35:05.705Z,13.83
2023-05-15T08:37:34.701Z,13.96
2023-05-15T08:40:02.921Z,13.94
2023-05-15T08:42:36.793Z,14.13
2023-05-15T08:45:09.062Z,14.30
2023-05-15T08:47:41.320Z,14.37
2023-05-15T08:50:15.431Z,14.89
2023-05-15T08:52:45.834Z,15.27
2023-05-15T08:55:15.239Z,14.85
2023-05-15T08:57:44.112Z,14.61
2023-05-15T09:00:15.140Z,14.22
2023-05-15T09:02:43.953Z,13.94
2023-05-15T09:05:12.176Z,13.68
2023-05-15T09:07:42.309Z,13.54
2023-05-15T09:10:11.522Z,13.63
2023-05-15T09:12:44.656Z,13.76
2023-05-15T09:15:17.961Z,13.75
2023-05-15T09:17:47.054Z,13.69
2023-05-15T09:20:29.550Z,13.87
2023-05-15T09:22:58.016Z,14.02
2023-05-15T09:25:39.480Z,14.20
2023-05-15T09:28:08.948Z,14.18
2023-05-15T09:30:42.909Z,14.36
2023-05-15T09:33:13.311Z,14.54
2023-05-15T09:35:41.977Z,14.72
2023-05-15T09:38:11.794Z,14.95
2023-05-15T09:40:41.166Z,15.38
2023-05-15T09:43:13.576Z,15.64
2023-05-15T09:45:43.459Z,15.60
2023-05-15T09:48:12.563Z,15.41
2023-05-15T09:50:42.785Z,15.36
2023-05-15T09:53:14.026Z,15.25
2023-05-15T09:55:43.706Z,15.16
2023-05-15T09:58:13.467Z,15.16
2023-05-15T10:00:48.610Z,15.21
2023-05-15T10:03:20.045Z,15.15
2023-05-15T10:05:48.157Z,15.01
2023-05-15T10:08:16.621Z,14.78
2023-05-15T10:10:46.116Z,14.71
2023-05-15T10:13:14.579Z,15.08
2023-05-15T10:15:44.077Z,15.20
2023-05-15T10:18:14.167Z,15.26
2023-05-15T10:20:42.758Z,15.17
2023-05-15T10:23:13.490Z,14.95
2023-05-15T10:25:47.121Z,15.35
2023-05-15T10:28:16.586Z,15.51
2023-05-15T10:30:47.176Z,15.65
2023-05-15T10:33:16.671Z,15.57
2023-05-15T10:35:45.967Z,15.61
2023-05-15T10:38:14.800Z,15.39
2023-05-15T10:40:43.400Z,15.43
2023-05-15T10:43:14.190Z,15.43
2023-05-15T10:45:42.602Z,15.50
2023-05-15T10:48:13.749Z,15.36
2023-05-15T10:50:42.198Z,15.41
2023-05-15T10:53:11.365Z,15.22
2023-05-15T10:55:39.495Z,15.30
2023-05-15T10:58:11.114Z,15.15
2023-05-15T11:00:44.596Z,14.96
2023-05-15T11:03:17.075Z,15.01
2023-05-15T11:06:11.018Z,14.93
2023-05-15T11:08:40.062Z,14.96
2023-05-15T11:11:08.376Z,14.96
2023-05-15T11:14:13.572Z,15.05
2023-05-15T11:17:05.056Z,15.07
2023-05-15T11:19:37.145Z,14.94
2023-05-15T11:22:18.487Z,14.95
2023-05-15T11:24:54.231Z,14.95
2023-05-15T11:27:24.528Z,14.94
2023-05-15T11:30:09.651Z,14.85
2023-05-15T11:32:58.286Z,14.92
2023-05-15T11:35:30.309Z,15.04
2023-05-15T11:38:00.022Z,15.15
2023-05-15T11:40:29.670Z,15.28
2023-05-15T11:43:09.041Z,15.32
2023-05-15T11:45:38.930Z,15.32
2023-05-15T11:48:09.204Z,15.45
2023-05-15T11:50:38.902Z,15.43
2023-05-15T11:53:08.292Z,15.52
2023-05-15T11:55:38.031Z,15.85
2023-05-15T11:58:07.023Z,15.90
2023-05-15T12:00:35.402Z,15.93
2023-05-15T12:03:04.850Z,16.32
2023-05-15T12:05:33.115Z,15.98
2023-05-15T12:08:02.566Z,16.45
2023-05-15T12:10:31.449Z,16.25
2023-05-15T12:13:00.168Z,16.58
2023-05-15T12:15:28.228Z,16.56
2023-05-15T12:17:56.442Z,16.66
2023-05-15T12:20:24.734Z,16.64
2023-05-15T12:22:52.976Z,16.49
2023-05-15T12:25:22.863Z,16.51
2023-05-15T12:27:51.227Z,16.60
2023-05-15T12:30:19.896Z,16.55
2023-05-15T12:32:48.459Z,15.52
2023-05-15T12:35:17.279Z,16.57
2023-05-15T12:37:46.284Z,16.44
2023-05-15T12:40:15.348Z,16.25
2023-05-15T12:42:45.819Z,16.49
2023-05-15T12:45:18.259Z,16.85
2023-05-15T12:47:47.593Z,16.90
2023-05-15T12:50:17.031Z,16.71
2023-05-15T12:52:51.449Z,16.82
2023-05-15T12:55:23.471Z,16.87
2023-05-15T12:57:53.499Z,16.40
2023-05-15T13:00:26.561Z,16.90
2023-05-15T13:02:56.521Z,17.35
2023-05-15T13:05:27.678Z,17.15
2023-05-15T13:07:58.360Z,16.95
2023-05-15T13:10:27.306Z,16.43
2023-05-15T13:12:59.659Z,16.74
2023-05-15T13:15:33.310Z,16.76
2023-05-15T13:18:06.580Z,16.68
2023-05-15T13:20:38.273Z,16.79
2023-05-15T13:23:09.117Z,16.94
2023-05-15T13:25:39.587Z,16.96
2023-05-15T13:28:10.666Z,16.39
2023-05-15T13:30:41.803Z,16.50
2023-05-15T13:33:10.850Z,17.02
2023-05-15T13:35:39.080Z,17.12
2023-05-15T13:38:10.390Z,17.10
2023-05-15T13:40:40.539Z,16.77
2023-05-15T13:43:09.907Z,16.71
2023-05-15T13:45:37.911Z,17.18
2023-05-15T13:48:06.465Z,17.18
2023-05-15T13:50:35.064Z,17.17
2023-05-15T13:53:03.087Z,17.17
2023-05-15T13:55:31.638Z,17.21
2023-05-15T13:57:59.894Z,17.33
2023-05-15T14:00:29.206Z,17.38
2023-05-15T14:02:57.376Z,17.22
2023-05-15T14:05:25.548Z,17.64
2023-05-15T14:07:53.590Z,17.51
2023-05-15T14:10:21.858Z,17.38
2023-05-15T14:12:49.954Z,17.34
2023-05-15T14:15:18.149Z,17.41
2023-05-15T14:17:48.916Z,17.51
2023-05-15T14:20:16.956Z,17.70
2023-05-15T14:22:45.015Z,17.74
2023-05-15T14:25:13.002Z,18.07
2023-05-15T14:27:41.059Z,18.26
2023-05-15T14:30:10.274Z,18.14
2023-05-15T14:32:38.752Z,18.22
2023-05-15T14:35:09.745Z,18.30
2023-05-15T14:37:38.503Z,18.38
2023-05-15T14:40:08.161Z,18.37
2023-05-15T14:42:36.252Z,18.16
2023-05-15T14:45:04.998Z,18.14
2023-05-15T14:47:33.849Z,18.36
2023-05-15T14:50:02.603Z,18.25
2023-05-15T14:52:32.215Z,18.10
2023-05-15T14:57:35.898Z,17.98
2023-05-15T15:00:06.110Z,17.93
2023-05-15T15:02:34.627Z,17.87
2023-05-15T15:05:03.256Z,17.75
2023-05-15T15:07:33.818Z,17.71
2023-05-15T15:10:01.764Z,17.63
2023-05-15T15:12:29.682Z,17.70
2023-05-15T15:14:57.628Z,17.58
2023-05-15T15:17:25.592Z,17.51
2023-05-15T15:19:53.533Z,17.47
2023-05-15T15:22:21.500Z,17.44
2023-05-15T15:24:50.923Z,17.29
2023-05-15T15:27:19.240Z,17.19
2023-05-15T15:29:47.140Z,17.06
2023-05-15T15:32:15.718Z,16.97
2023-05-15T15:34:43.799Z,17.00
2023-05-15T15:37:12.832Z,16.99
2023-05-15T15:39:40.948Z,16.87
2023-05-15T15:42:10.470Z,16.98
2023-05-15T15:44:38.557Z,16.85
2023-05-15T15:47:06.773Z,16.76
2023-05-15T15:49:34.705Z,16.79
2023-05-15T15:52:02.712Z,16.79
2023-05-15T15:54:33.249Z,16.78
2023-05-15T15:57:01.587Z,16.58
2023-05-15T15:59:30.985Z,16.75
2023-05-15T16:01:59.397Z,16.73
2023-05-15T16:04:27.370Z,16.64
2023-05-15T16:06:55.758Z,16.58
2023-05-15T16:09:23.686Z,16.62
2023-05-15T16:11:51.662Z,16.63
2023-05-15T16:14:20.887Z,16.51
2023-05-15T16:16:50.904Z,15.48
2023-05-15T16:19:18.940Z,16.34
2023-05-15T16:21:47.290Z,16.07
2023-05-15T16:24:15.440Z,15.93
2023-05-15T16:26:43.408Z,15.93
2023-05-15T16:29:11.342Z,15.88
2023-05-15T16:31:39.476Z,15.90
2023-05-15T16:34:09.853Z,15.86
2023-05-15T16:36:37.876Z,15.80
2023-05-15T16:39:08.005Z,15.77
2023-05-15T16:41:37.342Z,15.76
2023-05-15T16:44:10.831Z,15.71
2023-05-15T16:46:39.291Z,15.69
2023-05-15T16:49:08.688Z,15.67
2023-05-15T16:51:37.712Z,15.67
2023-05-15T16:54:06.081Z,15.63
2023-05-15T16:56:34.087Z,15.72
2023-05-15T16:59:02.033Z,15.67
2023-05-15T17:01:30.047Z,15.60
2023-05-15T17:03:58.243Z,15.52
2023-05-15T17:06:27.642Z,15.44
2023-05-15T17:08:55.671Z,15.33
2023-05-15T17:11:23.655Z,15.27
2023-05-15T17:13:51.708Z,15.25
2023-05-15T17:16:19.653Z,15.21
2023-05-15T17:18:50.329Z,15.12
2023-05-15T17:21:18.519Z,15.26
2023-05-15T17:23:47.983Z,15.30
2023-05-15T17:26:15.938Z,15.30
2023-05-15T17:28:43.936Z,15.24
2023-05-15T17:31:11.927Z,15.15
2023-05-15T17:33:40.580Z,15.21
2023-05-15T17:36:09.353Z,15.17
2023-05-15T17:38:37.300Z,15.10
2023-05-15T17:41:08.255Z,15.08
2023-05-15T17:43:36.191Z,14.69
2023-05-15T17:48:34.036Z,15.01
2023-05-15T17:51:01.952Z,14.86
2023-05-15T17:53:29.890Z,15.04
2023-05-15T17:55:58.991Z,15.03
2023-05-15T17:58:28.491Z,15.00
2023-05-15T18:00:57.390Z,14.93
2023-05-15T18:03:25.874Z,14.95
2023-05-15T18:05:54.075Z,14.87
2023-05-15T18:08:22.642Z,14.93
2023-05-15T18:10:50.693Z,14.93
2023-05-15T18:13:19.332Z,14.93
2023-05-15T18:15:49.075Z,14.88
2023-05-15T18:18:17.132Z,14.91
2023-05-15T18:20:45.197Z,14.94
2023-05-15T18:23:13.715Z,14.99
2023-05-15T18:25:43.432Z,14.91
2023-05-15T18:28:11.529Z,15.02
2023-05-15T18:30:39.480Z,14.96
2023-05-15T18:33:09.116Z,15.06
2023-05-15T18:35:37.217Z,15.06
2023-05-15T18:38:05.205Z,15.06
2023-05-15T18:40:33.529Z,15.04
2023-05-15T18:43:01.857Z,14.83
2023-05-15T18:45:29.859Z,14.96
2023-05-15T18:47:57.855Z,15.02
2023-05-15T18:50:27.690Z,15.03
2023-05-15T18:52:55.669Z,14.98
2023-05-15T18:55:24.055Z,14.84
2023-05-15T18:57:52.148Z,14.74
2023-05-15T19:00:36.500Z,14.75
2023-05-15T19:03:05.864Z,14.72
2023-05-15T19:05:35.540Z,14.73
2023-05-15T19:08:04.374Z,14.57
2023-05-15T19:10:41.932Z,14.84
2023-05-15T19:13:09.845Z,14.78
2023-05-15T19:15:37.948Z,14.84
2023-05-15T19:18:06.636Z,14.84
2023-05-15T19:20:36.834Z,14.81
2023-05-15T19:23:04.817Z,14.81
2023-05-15T19:25:32.759Z,14.78
2023-05-15T19:28:00.664Z,14.74
2023-05-15T19:30:28.731Z,14.71
2023-05-15T19:32:56.753Z,14.66
2023-05-15T19:35:24.871Z,14.64
2023-05-15T19:37:54.207Z,14.62
2023-05-15T19:40:22.182Z,14.60
2023-05-15T19:42:50.189Z,14.44
2023-05-15T19:45:18.312Z,14.31
2023-05-15T19:47:46.342Z,14.50
2023-05-15T19:50:14.534Z,14.58
2023-05-15T19:52:45.214Z,14.60
2023-05-15T19:55:15.270Z,14.59
2023-05-15T19:57:45.243Z,14.29
2023-05-15T20:00:14.554Z,14.62
2023-05-15T20:02:42.657Z,14.63
2023-05-15T20:05:11.090Z,14.63
2023-05-15T20:07:39.403Z,14.62
2023-05-15T20:10:09.197Z,14.59
2023-05-15T20:12:38.776Z,14.55
2023-05-15T20:15:08.703Z,14.59
2023-05-15T20:17:36.764Z,14.19
2023-05-15T20:20:08.162Z,14.49
2023-05-15T20:22:36.239Z,14.49
2023-05-15T20:25:04.388Z,14.43
2023-05-15T20:27:32.305Z,14.47
2023-05-15T20:30:02.916Z,14.43
2023-05-15T20:32:31.976Z,14.51
2023-05-15T20:35:00.660Z,14.51
2023-05-15T20:37:30.397Z,14.51
2023-05-15T20:40:00.065Z,14.20
2023-05-15T20:42:32.360Z,14.36
2023-05-15T20:45:01.703Z,14.46
2023-05-15T20:47:29.768Z,14.52
2023-05-15T20:49:57.737Z,14.56
2023-05-15T20:52:25.727Z,14.48
2023-05-15T20:54:53.683Z,14.55
2023-05-15T20:57:21.726Z,14.52
2023-05-15T20:59:49.672Z,14.49
2023-05-15T21:02:19.100Z,14.53
2023-05-15T21:04:47.064Z,14.53
2023-05-15T21:07:15.034Z,14.51
2023-05-15T21:09:43.040Z,14.44
2023-05-15T21:12:11.453Z,14.53
2023-05-15T21:14:39.943Z,14.51
2023-05-15T21:17:08.337Z,14.48
2023-05-15T21:19:37.819Z,14.41
2023-05-15T21:22:06.055Z,14.44
2023-05-15T21:24:35.480Z,14.43
2023-05-15T21:27:03.491Z,14.46
2023-05-15T21:29:31.404Z,14.47
2023-05-15T21:31:59.346Z,14.48
2023-05-15T21:34:27.327Z,14.41
2023-05-15T21:36:56.630Z,14.50
2023-05-15T21:39:25.029Z,14.52
2023-05-15T21:41:53.396Z,14.52
2023-05-15T21:44:22.380Z,14.54
2023-05-15T21:46:50.788Z,14.54
2023-05-15T21:49:18.838Z,14.50
2023-05-15T21:51:46.814Z,14.35
2023-05-15T21:54:16.189Z,14.53
2023-05-15T21:56:44.080Z,14.45
2023-05-15T21:59:14.229Z,14.59
2023-05-15T22:01:42.398Z,14.57
2023-05-15T22:04:10.664Z,14.65
2023-05-15T22:06:38.627Z,14.66
2023-05-15T22:09:06.783Z,14.64
2023-05-15T22:11:36.090Z,14.66
2023-05-15T22:14:04.148Z,14.67
2023-05-15T22:16:32.126Z,14.45
2023-05-15T22:19:00.239Z,14.69
2023-05-15T22:21:28.190Z,14.77
2023-05-15T22:23:56.123Z,14.80
2023-05-15T22:26:24.380Z,14.79
2023-05-15T22:28:56.723Z,14.90
2023-05-15T22:31:24.699Z,14.89
2023-05-15T22:33:52.934Z,14.89
2023-05-15T22:36:21.355Z,14.94
2023-05-15T22:38:49.360Z,14.93
2023-05-15T22:41:17.309Z,14.93
2023-05-15T22:43:45.236Z,14.96
2023-05-15T22:46:16.114Z,14.81
2023-05-15T22:48:44.076Z,15.00
2023-05-15T22:51:12.180Z,14.95
2023-05-15T22:53:40.118Z,14.92
2023-05-15T22:56:08.530Z,14.92
2023-05-15T22:58:36.499Z,14.90
2023-05-15T23:01:07.936Z,14.86
2023-05-15T23:03:37.449Z,14.87
2023-05-15T23:06:17.681Z,14.75
2023-05-15T23:08:46.068Z,14.84
2023-05-15T23:11:14.013Z,14.84
2023-05-15T23:13:42.008Z,14.85
2023-05-15T23:16:10.106Z,14.87
2023-05-15T23:18:39.571Z,14.89
2023-05-15T23:21:07.555Z,14.89
2023-05-15T23:23:35.707Z,14.84
2023-05-15T23:26:03.624Z,14.80
2023-05-15T23:28:31.663Z,14.75
2023-05-15T23:30:59.601Z,14.70
2023-05-15T23:33:27.551Z,14.67
2023-05-15T23:35:56.931Z,14.56
2023-05-15T23:38:24.942Z,14.57
2023-05-15T23:40:53.022Z,14.57
2023-05-15T23:43:21.876Z,14.47
2023-05-15T23:45:49.910Z,14.47
2023-05-15T23:48:18.010Z,14.41
2023-05-15T23:50:46.130Z,14.35
2023-05-15T23:53:15.494Z,14.33
2023-05-15T23:55:43.378Z,14.36
2023-05-15T23:58:11.352Z,14.38
